Time;durP1;ratioP1;P1;durP2;ratioP2;P2;SDS_P1;SDS_P2;PMS_P1;PMS_P2;Temp;Humidity;BMP_temperature;BMP_pressure;BME280_temperature;BME280_humidity;BME280_pressure;Samples;Min_cycle;Max_cycle;Signal;HPM_P1;HPM_P2
2021/06/20 00:02:31;;;;;;;9.65;6.15;;;;;;;20.88;56.05;98773.75;5066245;28;20580;-94
2021/06/20 00:05:18;;;;;;;9.65;6.30;;;;;;;20.88;55.99;98781.88;5073976;28;20418;-94
2021/06/20 00:08:04;;;;;;;10.85;6.95;;;;;;;20.66;56.22;98764.44;5062595;28;20186;-95
2021/06/20 00:10:50;;;;;;;16.92;7.90;;;;;;;20.65;56.69;98770.81;5053894;28;20056;-94
2021/06/20 00:13:34;;;;;;;10.13;7.40;;;;;;;20.60;57.32;98783.78;5054661;28;20056;-94
2021/06/20 00:16:19;;;;;;;10.30;7.90;;;;;;;20.57;58.93;98785.78;5066088;28;20095;-94
2021/06/20 00:19:06;;;;;;;12.57;7.47;;;;;;;20.44;59.40;98792.00;5068204;28;20048;-93
2021/06/20 00:21:53;;;;;;;11.90;7.55;;;;;;;20.37;59.65;98797.94;5065356;28;20052;-95
2021/06/20 00:24:39;;;;;;;11.25;7.28;;;;;;;20.33;59.49;98796.41;5055341;28;20068;-94
2021/06/20 00:27:23;;;;;;;11.73;7.43;;;;;;;20.29;60.20;98795.75;5064281;28;20106;-94
2021/06/20 00:30:10;;;;;;;10.40;7.25;;;;;;;20.28;60.02;98797.59;5065337;28;20098;-93
2021/06/20 00:32:55;;;;;;;12.48;7.57;;;;;;;20.27;60.49;98803.06;5074339;28;20052;-94
2021/06/20 00:35:41;;;;;;;13.43;7.70;;;;;;;20.22;61.26;98807.94;5064825;28;20461;-92
2021/06/20 00:38:25;;;;;;;12.13;7.90;;;;;;;20.10;61.60;98799.69;5058138;28;20056;-95
2021/06/20 00:41:10;;;;;;;14.13;7.78;;;;;;;19.99;61.71;98796.78;5058680;28;20071;-94
2021/06/20 00:43:54;;;;;;;12.75;7.90;;;;;;;20.08;61.21;98807.00;5062375;28;20556;-94
2021/06/20 00:46:38;;;;;;;13.60;8.05;;;;;;;20.08;61.75;98820.50;5065719;28;20056;-94
2021/06/20 00:49:23;;;;;;;11.45;7.57;;;;;;;19.93;63.19;98826.00;5068102;28;20047;-92
2021/06/20 00:52:10;;;;;;;13.55;8.32;;;;;;;19.80;62.82;98818.72;5072584;28;20049;-93
2021/06/20 00:54:56;;;;;;;15.35;8.80;;;;;;;19.75;63.45;98820.84;5062549;28;20040;-94
2021/06/20 00:57:41;;;;;;;14.95;8.43;;;;;;;19.74;63.56;98827.22;5072083;28;20098;-94
2021/06/20 01:00:26;;;;;;;14.50;8.38;;;;;;;19.70;64.10;98814.88;5063572;28;20067;-94
2021/06/20 01:03:12;;;;;;;13.68;8.40;;;;;;;19.63;63.99;98800.03;5073289;28;20452;-93
2021/06/20 01:05:57;;;;;;;14.05;8.70;;;;;;;19.56;64.37;98801.34;5075225;28;20047;-93
2021/06/20 01:08:43;;;;;;;13.75;8.48;;;;;;;19.53;64.94;98812.34;5071706;28;20086;-93
2021/06/20 01:11:27;;;;;;;11.85;8.57;;;;;;;19.54;64.16;98806.88;5072996;28;20050;-94
2021/06/20 01:14:15;;;;;;;16.60;7.93;;;;;;;19.52;64.01;98806.09;5078034;28;20106;-95
2021/06/20 01:17:00;;;;;;;11.60;8.07;;;;;;;19.52;63.92;98800.69;5076195;28;20044;-93
2021/06/20 01:19:46;;;;;;;10.65;7.63;;;;;;;19.54;63.70;98796.06;5058305;28;20048;-93
2021/06/20 01:22:35;;;;;;;13.45;7.95;;;;;;;19.63;64.03;98813.50;5056643;28;20560;-94
2021/06/20 01:25:21;;;;;;;11.65;7.40;;;;;;;19.53;63.62;98797.03;5070338;28;20532;-92
2021/06/20 01:28:09;;;;;;;12.93;7.97;;;;;;;19.50;63.97;98800.78;5077243;28;20055;-94
2021/06/20 01:34:02;;;;;;;12.18;8.13;;;;;;;19.39;65.03;98794.34;5170007;27;20358;-93
2021/06/20 01:36:47;;;;;;;13.68;8.43;;;;;;;19.41;65.22;98795.97;5154769;27;20061;-92
2021/06/20 01:39:31;;;;;;;11.32;8.05;;;;;;;19.40;65.44;98804.16;5155867;27;20498;-95
2021/06/20 01:42:16;;;;;;;13.30;8.57;;;;;;;19.27;65.60;98795.97;5155439;27;20050;-94
2021/06/20 01:45:01;;;;;;;11.82;8.18;;;;;;;19.33;65.57;98794.72;5153679;27;20046;-93
2021/06/20 01:47:45;;;;;;;11.95;9.23;;;;;;;19.38;64.63;98793.47;5156764;27;20087;-93
2021/06/20 01:50:35;;;;;;;11.70;8.27;;;;;;;19.41;65.45;98774.41;5165311;27;20453;-93
2021/06/20 01:53:19;;;;;;;14.88;8.15;;;;;;;19.44;64.98;98771.50;5153655;27;20046;-94
2021/06/20 01:56:04;;;;;;;13.75;7.97;;;;;;;19.42;65.08;98767.19;5153395;27;20053;-92
2021/06/20 01:58:48;;;;;;;14.95;8.80;;;;;;;19.38;66.47;98782.66;5153145;27;20084;-91
2021/06/20 02:01:32;;;;;;;11.43;8.23;;;;;;;19.29;66.82;98775.16;5152983;27;20099;-92
2021/06/20 02:04:19;;;;;;;16.38;8.85;;;;;;;19.15;68.04;98783.25;5143778;27;20096;-91
2021/06/20 02:07:07;;;;;;;12.00;8.73;;;;;;;19.12;67.77;98786.13;5153383;27;20518;-92
2021/06/20 02:09:51;;;;;;;10.77;7.78;;;;;;;19.13;67.62;98780.66;5153664;27;20510;-92
2021/06/20 02:12:36;;;;;;;13.75;8.52;;;;;;;19.14;67.75;98779.69;5153463;27;20046;-92
2021/06/20 02:15:20;;;;;;;13.27;8.63;;;;;;;19.08;68.13;98759.38;5153023;27;20053;-93
2021/06/20 02:18:06;;;;;;;13.07;8.23;;;;;;;19.09;68.18;98763.81;5153514;27;20085;-92
2021/06/20 02:20:50;;;;;;;15.25;8.50;;;;;;;19.13;68.02;98777.97;5152945;27;20050;-93
2021/06/20 02:23:36;;;;;;;12.43;8.15;;;;;;;19.13;68.45;98785.16;5150637;27;20095;-92
2021/06/20 02:26:24;;;;;;;12.63;8.52;;;;;;;19.09;68.67;98777.28;5132593;28;20042;-94
2021/06/20 02:29:08;;;;;;;11.68;8.00;;;;;;;19.09;68.28;98782.66;5132872;28;20054;-94
2021/06/20 02:31:52;;;;;;;11.38;8.63;;;;;;;19.02;67.96;98777.78;5132829;28;20441;-93
2021/06/20 02:34:38;;;;;;;13.05;8.48;;;;;;;18.83;67.77;98783.41;5132787;28;20047;-91
2021/06/20 02:37:23;;;;;;;13.48;8.57;;;;;;;18.94;68.36;98802.47;5132197;28;20081;-92
2021/06/20 02:40:10;;;;;;;13.77;8.70;;;;;;;18.95;67.73;98806.03;5132081;28;20051;-94
2021/06/20 02:42:55;;;;;;;11.45;8.23;;;;;;;18.87;67.51;98799.28;5131572;28;20066;-93
2021/06/20 02:45:39;;;;;;;11.95;8.30;;;;;;;18.86;67.23;98802.06;5126415;27;20050;-92
2021/06/20 02:48:24;;;;;;;13.55;8.10;;;;;;;18.82;68.36;98812.19;5138960;27;20054;-94
2021/06/20 02:51:09;;;;;;;12.00;7.85;;;;;;;18.79;67.96;98811.50;5138595;27;20112;-91
2021/06/20 02:53:53;;;;;;;12.45;8.63;;;;;;;18.83;67.93;98813.91;5139094;27;20049;-92
2021/06/20 02:56:40;;;;;;;14.13;8.65;;;;;;;18.75;68.19;98804.50;5139325;27;20054;-92
2021/06/20 02:59:25;;;;;;;11.95;9.32;;;;;;;18.74;68.44;98810.88;5139170;27;20050;-93
2021/06/20 03:02:10;;;;;;;15.27;8.77;;;;;;;18.69;69.79;98824.59;5137867;27;20057;-91
2021/06/20 03:04:55;;;;;;;14.35;8.52;;;;;;;18.61;69.80;98826.91;5138635;27;20046;-92
2021/06/20 03:07:39;;;;;;;12.77;9.02;;;;;;;18.63;69.95;98838.44;5142294;27;20058;-93
2021/06/20 03:10:24;;;;;;;13.73;9.15;;;;;;;18.60;69.57;98839.47;5138773;27;20108;-93
2021/06/20 03:13:10;;;;;;;13.13;8.82;;;;;;;18.57;69.83;98855.81;5137988;27;20046;-93
2021/06/20 03:15:54;;;;;;;16.27;9.73;;;;;;;18.49;69.57;98847.31;5137856;27;20041;-92
2021/06/20 03:18:41;;;;;;;13.13;8.50;;;;;;;18.44;69.84;98847.59;5139047;27;20054;-94
2021/06/20 03:21:26;;;;;;;14.73;9.55;;;;;;;18.39;70.01;98843.41;5140980;27;20111;-94
2021/06/20 03:24:11;;;;;;;14.95;8.95;;;;;;;18.36;70.51;98851.69;5140228;27;20463;-94
2021/06/20 03:26:56;;;;;;;11.50;8.98;;;;;;;18.34;70.71;98846.38;5139603;27;20041;-92
2021/06/20 03:29:41;;;;;;;16.70;9.65;;;;;;;18.34;70.23;98856.28;5139247;27;20086;-93
2021/06/20 03:32:26;;;;;;;14.63;9.45;;;;;;;18.30;70.18;98843.94;5138225;27;20049;-94
2021/06/20 03:35:12;;;;;;;16.65;8.50;;;;;;;18.34;69.56;98843.69;5138149;27;20091;-94
2021/06/20 03:37:56;;;;;;;12.15;8.82;;;;;;;18.37;70.28;98864.19;5137613;27;20042;-93
2021/06/20 03:40:41;;;;;;;13.63;9.02;;;;;;;18.29;70.22;98864.63;5137619;27;20061;-92
2021/06/20 03:43:25;;;;;;;16.60;9.80;;;;;;;18.36;69.21;98857.06;5138460;27;20046;-95
2021/06/20 03:46:11;;;;;;;13.98;9.10;;;;;;;18.25;69.39;98834.31;5138684;27;20057;-93
2021/06/20 03:48:55;;;;;;;15.30;9.43;;;;;;;18.24;69.92;98840.66;5141431;27;20050;-94
2021/06/20 03:51:40;;;;;;;13.85;9.63;;;;;;;18.29;70.55;98850.31;5141296;27;20103;-94
2021/06/20 03:54:25;;;;;;;14.77;9.35;;;;;;;18.38;70.37;98852.47;5138730;27;20140;-95
2021/06/20 03:57:09;;;;;;;13.77;9.20;;;;;;;18.48;70.73;98861.75;5137453;27;20060;-93
2021/06/20 03:59:54;;;;;;;15.73;9.35;;;;;;;18.62;69.88;98860.94;5137527;27;20151;-94
2021/06/20 04:02:39;;;;;;;13.38;9.35;;;;;;;18.75;69.51;98853.88;5156511;27;20049;-93
2021/06/20 04:05:24;;;;;;;13.57;8.73;;;;;;;18.85;69.95;98854.22;5138392;27;20050;-93
2021/06/20 04:08:08;;;;;;;14.68;9.02;;;;;;;18.97;69.70;98858.00;5137120;27;20087;-94
2021/06/20 04:10:53;;;;;;;15.90;9.32;;;;;;;19.01;69.50;98849.66;5136739;27;20564;-93
2021/06/20 04:13:38;;;;;;;11.05;9.30;;;;;;;19.15;69.26;98846.13;5134124;27;20088;-93
2021/06/20 04:16:22;;;;;;;11.52;8.93;;;;;;;19.25;69.07;98849.13;5137041;27;20042;-94
2021/06/20 04:19:08;;;;;;;16.77;8.95;;;;;;;19.35;68.57;98863.78;5137177;27;20400;-95
2021/06/20 04:21:52;;;;;;;15.13;8.70;;;;;;;19.52;68.98;98864.53;5137231;27;20038;-93
2021/06/20 04:24:36;;;;;;;13.48;8.85;;;;;;;19.66;68.40;98865.41;5136799;27;20087;-94
2021/06/20 04:27:20;;;;;;;11.90;8.68;;;;;;;19.92;67.12;98867.47;5136817;27;20445;-95
2021/06/20 04:30:07;;;;;;;12.75;9.20;;;;;;;20.09;66.65;98857.31;5136757;27;20506;-93
2021/06/20 04:32:52;;;;;;;14.18;8.90;;;;;;;20.25;66.23;98864.41;5122881;27;20072;-92
2021/06/20 04:35:39;;;;;;;12.88;8.77;;;;;;;20.35;65.42;98878.19;5136723;27;20505;-94
2021/06/20 04:38:24;;;;;;;17.40;8.67;;;;;;;20.38;65.28;98872.59;5137332;27;20116;-92
2021/06/20 04:41:12;;;;;;;12.85;9.00;;;;;;;20.58;65.44;98879.41;5127874;27;20058;-93
2021/06/20 04:44:00;;;;;;;14.93;9.20;;;;;;;20.78;64.86;98888.91;5136858;27;20080;-94
2021/06/20 04:46:44;;;;;;;14.40;9.05;;;;;;;20.83;63.54;98884.03;5136591;27;20567;-95
2021/06/20 04:49:29;;;;;;;11.60;8.75;;;;;;;20.97;64.04;98888.50;5136780;27;20046;-93
2021/06/20 04:52:15;;;;;;;12.57;8.82;;;;;;;21.08;62.85;98892.22;5138140;27;20388;-93
2021/06/20 04:54:59;;;;;;;11.82;8.70;;;;;;;21.15;61.91;98894.53;5137828;27;20038;-93
2021/06/20 04:57:44;;;;;;;14.27;8.80;;;;;;;21.17;62.24;98888.03;5136458;27;20404;-93
2021/06/20 05:00:28;;;;;;;13.25;9.32;;;;;;;21.17;62.18;98892.56;5145810;27;20518;-94
2021/06/20 05:03:12;;;;;;;12.18;8.70;;;;;;;21.17;62.43;98889.88;5140316;27;20046;-93
2021/06/20 05:05:57;;;;;;;12.38;8.70;;;;;;;21.15;62.64;98887.25;5137706;27;20092;-94
2021/06/20 05:08:43;;;;;;;13.70;8.60;;;;;;;21.08;63.03;98880.56;5136068;27;20050;-94
2021/06/20 05:11:27;;;;;;;11.93;8.52;;;;;;;21.07;63.18;98879.66;5135953;27;20045;-93
2021/06/20 05:14:12;;;;;;;12.32;8.23;;;;;;;21.17;64.04;98900.69;5137856;27;20491;-92
2021/06/20 05:16:57;;;;;;;11.95;8.90;;;;;;;21.07;64.16;98895.88;5137352;27;20050;-94
2021/06/20 05:19:42;;;;;;;12.75;8.63;;;;;;;21.23;63.53;98911.06;5119568;27;20091;-94
2021/06/20 05:22:27;;;;;;;13.13;8.65;;;;;;;21.36;63.23;98882.22;5136078;27;20072;-93
2021/06/20 05:25:13;;;;;;;15.13;9.35;;;;;;;21.65;62.08;98884.75;5137406;27;20061;-94
2021/06/20 05:27:57;;;;;;;12.52;8.63;;;;;;;22.13;61.13;98868.66;5132331;27;20046;-94
2021/06/20 05:30:45;;;;;;;11.88;8.43;;;;;;;22.61;59.35;98851.59;5135303;28;20069;-93
2021/06/20 05:33:29;;;;;;;14.27;8.63;;;;;;;23.10;56.71;98810.78;5135384;28;20042;-93
2021/06/20 05:36:14;;;;;;;11.88;8.70;;;;;;;22.64;58.01;98808.00;5136267;28;20053;-94
2021/06/20 05:38:58;;;;;;;14.77;8.15;;;;;;;22.26;59.30;98800.94;5130012;28;20088;-93
2021/06/20 05:41:44;;;;;;;11.60;8.85;;;;;;;22.02;59.68;98814.41;5136468;28;20061;-94
2021/06/20 05:44:29;;;;;;;12.57;8.13;;;;;;;22.39;57.82;98825.25;5137768;28;20049;-94
2021/06/20 05:47:13;;;;;;;11.13;8.30;;;;;;;22.23;57.80;98834.53;5137110;28;20050;-93
2021/06/20 05:50:00;;;;;;;14.55;8.70;;;;;;;22.41;57.16;98813.31;5136934;28;20054;-96
2021/06/20 05:52:47;;;;;;;10.70;8.35;;;;;;;22.76;56.72;98818.78;5138028;28;20100;-95
2021/06/20 05:55:32;;;;;;;10.45;8.18;;;;;;;22.60;56.61;98820.03;5137496;28;20088;-94
2021/06/20 05:58:17;;;;;;;10.40;7.90;;;;;;;22.60;53.76;98825.47;5138060;28;20068;-95
2021/06/20 06:01:02;;;;;;;11.45;7.32;;;;;;;22.84;54.33;98836.31;5136643;28;20065;-95
2021/06/20 06:03:47;;;;;;;12.30;7.82;;;;;;;22.88;54.24;98811.56;5137638;28;20606;-95
2021/06/20 06:06:34;;;;;;;10.50;7.75;;;;;;;23.14;53.23;98798.72;5140120;28;20062;-94
2021/06/20 06:09:19;;;;;;;10.70;7.28;;;;;;;23.32;53.47;98806.38;5136660;28;20042;-95
2021/06/20 06:12:04;;;;;;;10.13;7.57;;;;;;;23.19;53.90;98792.06;5136916;28;20405;-94
2021/06/20 06:14:50;;;;;;;11.30;7.68;;;;;;;23.38;52.85;98789.63;5150991;27;20057;-94
2021/06/20 06:17:35;;;;;;;11.13;7.93;;;;;;;23.12;52.87;98778.97;5118461;28;20093;-96
2021/06/20 06:20:20;;;;;;;12.23;7.57;;;;;;;23.09;54.93;98791.91;5121366;28;20073;-94
2021/06/20 06:23:05;;;;;;;14.80;8.20;;;;;;;23.10;54.98;98780.94;5122920;28;20047;-94
2021/06/20 06:25:50;;;;;;;21.98;8.00;;;;;;;22.43;57.65;98786.13;5138181;27;20066;-94
2021/06/20 06:28:34;;;;;;;12.35;9.10;;;;;;;22.24;58.14;98770.38;5142342;27;20503;-93
2021/06/20 06:31:20;;;;;;;10.80;7.90;;;;;;;22.63;56.83;98768.34;5140568;27;20053;-94
2021/06/20 06:34:05;;;;;;;10.90;8.07;;;;;;;22.90;56.95;98774.34;5142432;27;20058;-94
2021/06/20 06:36:51;;;;;;;11.80;7.97;;;;;;;22.93;56.07;98754.25;5142480;27;20050;-95
2021/06/20 06:39:35;;;;;;;12.40;8.15;;;;;;;23.23;55.08;98771.84;5140802;27;20050;-93
2021/06/20 06:42:25;;;;;;;11.38;8.20;;;;;;;23.62;54.10;98775.94;5140338;27;20430;-94
2021/06/20 06:45:11;;;;;;;11.10;8.30;;;;;;;23.99;53.08;98775.69;5139782;27;20559;-93
2021/06/20 06:47:57;;;;;;;11.40;7.75;;;;;;;24.14;52.80;98762.69;5139967;27;20099;-94
2021/06/20 06:50:42;;;;;;;9.95;7.63;;;;;;;24.06;52.13;98766.03;5140168;27;20073;-94
2021/06/20 06:53:26;;;;;;;11.85;8.18;;;;;;;24.12;52.65;98764.66;5140443;27;20167;-95
2021/06/20 06:56:13;;;;;;;13.13;8.43;;;;;;;24.12;52.36;98760.09;5141016;27;20469;-93
2021/06/20 06:58:59;;;;;;;12.55;8.43;;;;;;;24.25;51.28;98759.94;5139424;27;20054;-94
2021/06/20 07:01:43;;;;;;;12.88;8.38;;;;;;;24.41;50.94;98751.34;5138643;27;20404;-94
2021/06/20 07:04:29;;;;;;;9.82;7.80;;;;;;;24.52;50.68;98750.47;5139896;27;20503;-93
2021/06/20 07:07:13;;;;;;;11.60;8.45;;;;;;;24.62;49.68;98751.41;5139717;27;20387;-94
2021/06/20 07:09:59;;;;;;;10.82;7.72;;;;;;;24.78;49.39;98734.63;5139632;27;20610;-94
2021/06/20 07:12:44;;;;;;;14.05;7.82;;;;;;;24.75;49.01;98721.31;5142356;27;20426;-94
2021/06/20 07:15:29;;;;;;;11.05;7.70;;;;;;;24.79;49.12;98714.63;5119391;28;20043;-95
2021/06/20 07:18:15;;;;;;;10.70;8.20;;;;;;;25.14;48.32;98713.38;5118445;28;20431;-94
2021/06/20 07:21:02;;;;;;;13.45;7.60;;;;;;;25.54;45.36;98704.41;5120894;27;20051;-93
2021/06/20 07:23:47;;;;;;;15.23;7.88;;;;;;;26.06;44.48;98698.84;5138502;27;20042;-94
2021/06/20 07:26:31;;;;;;;10.48;7.30;;;;;;;26.18;44.56;98686.81;5140453;27;20100;-93
2021/06/20 07:29:15;;;;;;;10.95;7.88;;;;;;;26.16;44.81;98670.59;5144718;27;20433;-93
2021/06/20 07:32:02;;;;;;;13.13;8.02;;;;;;;26.11;44.24;98675.63;5134363;27;20050;-93
2021/06/20 07:34:51;;;;;;;10.27;7.63;;;;;;;25.64;46.28;98671.78;5141714;27;20046;-92
2021/06/20 07:37:37;;;;;;;12.82;8.07;;;;;;;25.82;45.65;98668.22;5137469;27;20117;-92
2021/06/20 07:40:21;;;;;;;10.30;7.60;;;;;;;25.99;45.57;98665.84;5136952;27;20135;-93
2021/06/20 07:43:06;;;;;;;12.70;8.43;;;;;;;26.46;44.35;98656.94;5135688;27;20056;-93
2021/06/20 07:45:53;;;;;;;11.00;7.50;;;;;;;26.53;44.41;98660.81;5144494;27;20085;-94
2021/06/20 07:48:38;;;;;;;12.85;7.70;;;;;;;26.24;44.42;98658.97;5137556;27;20099;-92
2021/06/20 07:51:22;;;;;;;12.00;7.38;;;;;;;26.12;45.20;98646.50;5138068;27;20122;-91
2021/06/20 07:54:08;;;;;;;12.80;7.60;;;;;;;25.69;46.99;98623.19;5139143;27;20065;-94
2021/06/20 07:56:55;;;;;;;14.73;8.23;;;;;;;25.45;47.92;98624.44;5142098;27;20042;-94
2021/06/20 07:59:40;;;;;;;12.68;7.85;;;;;;;25.43;47.43;98620.97;5139497;27;20074;-94
2021/06/20 08:02:24;;;;;;;14.23;7.20;;;;;;;25.35;48.58;98612.63;5140060;27;20046;-94
2021/06/20 08:05:10;;;;;;;13.35;8.43;;;;;;;24.52;49.64;98600.94;5139931;27;20046;-93
2021/06/20 08:07:55;;;;;;;12.32;8.55;;;;;;;24.78;49.56;98590.50;5140111;27;20055;-93
2021/06/20 08:10:41;;;;;;;15.48;9.13;;;;;;;24.19;51.73;98597.41;5143302;27;20057;-94
2021/06/20 08:13:26;;;;;;;12.98;8.30;;;;;;;24.00;52.85;98592.69;5137198;27;20034;-92
2021/06/20 08:16:10;;;;;;;12.55;8.23;;;;;;;24.32;51.38;98581.75;5152519;27;20138;-94
2021/06/20 08:18:57;;;;;;;11.98;8.30;;;;;;;24.26;51.84;98576.84;5149237;27;20172;-93
2021/06/20 08:21:43;;;;;;;13.88;8.38;;;;;;;24.68;50.74;98565.09;5147565;27;20061;-96
2021/06/20 08:24:27;;;;;;;12.65;8.60;;;;;;;24.35;52.13;98551.63;5141156;27;20050;-93
2021/06/20 08:27:13;;;;;;;11.15;8.73;;;;;;;25.02;49.58;98546.63;5142942;27;20092;-96
2021/06/20 08:29:58;;;;;;;12.82;8.98;;;;;;;25.67;49.23;98546.22;5142445;27;20050;-95
2021/06/20 08:32:42;;;;;;;15.80;8.70;;;;;;;26.39;48.30;98548.47;5144525;27;20058;-94
2021/06/20 08:35:27;;;;;;;24.40;9.30;;;;;;;25.78;47.05;98532.44;5141157;27;20050;-95
2021/06/20 08:38:12;;;;;;;20.77;9.35;;;;;;;25.51;47.95;98531.31;5121827;28;20058;-96
2021/06/20 08:40:57;;;;;;;14.40;8.98;;;;;;;25.93;48.28;98549.25;5144970;27;20523;-93
2021/06/20 08:43:43;;;;;;;15.70;9.07;;;;;;;25.59;48.19;98545.06;5139725;27;20054;-92
2021/06/20 08:46:28;;;;;;;13.38;8.60;;;;;;;26.43;46.40;98538.97;5151026;27;20502;-95
2021/06/20 08:49:13;;;;;;;14.30;8.45;;;;;;;26.65;46.26;98547.84;5142669;27;20062;-94
2021/06/20 08:51:59;;;;;;;11.35;7.90;;;;;;;26.79;42.67;98551.97;5157093;27;20138;-93
2021/06/20 08:55:01;;;;;;;13.57;8.15;;;;;;;26.68;44.52;98542.09;5142641;27;20050;-93
2021/06/20 08:57:48;;;;;;;12.73;8.18;;;;;;;27.62;44.24;98541.88;5159620;27;20050;-95
2021/06/20 09:00:35;;;;;;;12.68;8.35;;;;;;;28.11;41.84;98518.78;5146778;27;20058;-94
2021/06/20 09:03:20;;;;;;;12.68;7.55;;;;;;;28.78;38.96;98522.63;5126034;27;20092;-94
2021/06/20 09:06:14;;;;;;;13.73;7.70;;;;;;;29.36;37.80;98522.88;5150330;27;20041;-95
2021/06/20 09:09:00;;;;;;;67.50;11.25;;;;;;;29.93;38.00;98544.03;5167388;27;20065;-95
2021/06/20 09:11:46;;;;;;;13.68;7.55;;;;;;;29.69;36.99;98516.47;5164093;27;20057;-95
2021/06/20 09:14:40;;;;;;;16.92;8.07;;;;;;;29.54;37.52;98539.16;5154701;27;20400;-96
2021/06/20 09:17:30;;;;;;;12.02;7.57;;;;;;;29.44;37.53;98539.31;5157107;27;20087;-93
2021/06/20 09:20:15;;;;;;;13.65;7.82;;;;;;;29.22;38.48;98527.97;5142715;27;20042;-96
2021/06/20 09:23:02;;;;;;;12.02;7.10;;;;;;;29.21;38.51;98545.44;5145173;27;20093;-95
2021/06/20 09:25:55;;;;;;;14.00;7.43;;;;;;;28.64;39.97;98539.66;5144724;27;20072;-95
2021/06/20 09:28:39;;;;;;;14.02;8.10;;;;;;;28.15;40.88;98523.75;5139192;27;20050;-93
2021/06/20 09:31:24;;;;;;;13.75;8.27;;;;;;;28.51;40.62;98537.34;5138512;27;20515;-93
2021/06/20 09:34:10;;;;;;;15.25;7.75;;;;;;;28.61;39.82;98531.78;5138519;28;20050;-93
2021/06/20 09:37:01;;;;;;;14.07;7.78;;;;;;;28.71;38.90;98521.56;5160824;27;20045;-94
2021/06/20 09:39:46;;;;;;;34.42;9.48;;;;;;;29.15;38.73;98528.78;5160476;27;20092;-94
2021/06/20 09:42:39;;;;;;;14.40;7.57;;;;;;;29.82;36.76;98506.84;5158935;27;20403;-95
2021/06/20 09:45:33;;;;;;;15.30;7.75;;;;;;;29.83;37.05;98512.19;5159821;27;20073;-95
2021/06/20 09:48:25;;;;;;;18.40;8.25;;;;;;;30.26;37.11;98506.50;5158601;27;20066;-94
2021/06/20 09:51:17;;;;;;;14.35;7.90;;;;;;;30.74;36.03;98498.38;5158006;27;20049;-95
2021/06/20 09:54:05;;;;;;;16.80;8.57;;;;;;;30.99;36.26;98501.88;5163649;27;20046;-96
2021/06/20 09:56:50;;;;;;;16.75;8.57;;;;;;;31.61;34.83;98512.91;5165362;27;20046;-94
2021/06/20 09:59:42;;;;;;;16.10;7.57;;;;;;;31.06;35.23;98494.66;5168467;27;20059;-96
2021/06/20 10:02:31;;;;;;;14.60;7.07;;;;;;;31.28;34.09;98504.84;5165008;27;20106;-94
2021/06/20 10:05:16;;;;;;;14.95;7.40;;;;;;;31.79;34.00;98498.00;5166037;27;20053;-95
2021/06/20 10:08:05;;;;;;;15.27;7.05;;;;;;;31.98;33.23;98467.25;5164359;27;20053;-94
2021/06/20 10:10:49;;;;;;;13.25;7.22;;;;;;;31.96;33.14;98487.72;5161520;27;20049;-95
2021/06/20 10:13:34;;;;;;;18.50;7.85;;;;;;;31.62;34.46;98497.25;5141761;27;20046;-94
2021/06/20 10:16:28;;;;;;;18.75;7.50;;;;;;;31.36;34.18;98492.06;5165803;27;20094;-95
2021/06/20 10:19:18;;;;;;;17.83;7.68;;;;;;;31.26;34.97;98471.19;5167129;27;20045;-95
2021/06/20 10:22:06;;;;;;;20.98;7.40;;;;;;;30.88;34.58;98465.56;5166074;27;20053;-94
2021/06/20 10:24:56;;;;;;;19.77;7.80;;;;;;;31.42;36.11;98489.47;5146089;27;20054;-94
2021/06/20 10:27:44;;;;;;;20.90;8.38;;;;;;;31.99;35.00;98473.63;5146972;27;20518;-94
2021/06/20 10:30:35;;;;;;;27.05;10.63;;;;;;;32.24;33.32;98463.25;5143153;27;20111;-96
2021/06/20 10:33:23;;;;;;;19.35;9.23;;;;;;;32.13;33.23;98446.13;5142994;27;20046;-95
2021/06/20 10:39:20;;;;;;;17.05;8.43;;;;;;;32.29;33.63;98471.78;5151568;27;20344;-92
2021/06/20 10:42:06;;;;;;;22.15;7.90;;;;;;;32.17;31.83;98481.56;5090000;27;20059;-92
2021/06/20 10:44:53;;;;;;;27.85;9.35;;;;;;;32.56;32.06;98473.06;5067006;28;20056;-93
2021/06/20 10:47:40;;;;;;;24.52;8.45;;;;;;;31.76;32.49;98462.63;5051808;28;20048;-95
2021/06/20 10:50:37;;;;;;;25.98;8.02;;;;;;;31.66;33.34;98450.00;5075737;28;20460;-93
2021/06/20 10:53:03;;;;;;;27.27;8.38;;;;;;;32.21;32.26;98441.63;5073148;28;20053;-93
2021/06/20 10:55:41;;;;;;;30.33;8.65;;;;;;;31.82;32.02;98448.16;5073527;28;20051;-94
2021/06/20 10:58:17;;;;;;;22.48;8.55;;;;;;;31.25;33.52;98447.50;5077479;28;20044;-93
2021/06/20 11:00:43;;;;;;;21.30;8.25;;;;;;;31.41;33.30;98434.69;5073799;28;20040;-93
2021/06/20 11:03:10;;;;;;;23.95;8.05;;;;;;;31.66;32.58;98443.63;5072433;28;20048;-92
2021/06/20 11:05:47;;;;;;;23.25;7.70;;;;;;;31.91;32.91;98423.13;5074221;28;20037;-93
2021/06/20 11:08:25;;;;;;;24.65;7.68;;;;;;;32.27;32.58;98425.22;5067137;28;20115;-94
2021/06/20 11:11:07;;;;;;;21.73;7.70;;;;;;;32.25;31.02;98413.53;5073254;28;20044;-94
2021/06/20 11:13:34;;;;;;;26.63;7.82;;;;;;;32.33;31.96;98415.31;5076944;28;20047;-95
2021/06/20 11:16:01;;;;;;;27.67;8.15;;;;;;;31.76;31.75;98415.88;5073439;28;20043;-94
2021/06/20 11:18:28;;;;;;;31.65;8.68;;;;;;;31.52;32.89;98401.31;5074509;28;20136;-94
2021/06/20 11:20:56;;;;;;;34.85;8.88;;;;;;;31.22;33.51;98403.91;5075575;28;20112;-93
2021/06/20 11:23:22;;;;;;;25.10;7.50;;;;;;;31.84;34.44;98426.81;5076805;28;20486;-94
2021/06/20 11:25:53;;;;;;;23.63;7.90;;;;;;;31.47;33.59;98401.03;5074601;28;20093;-93
2021/06/20 11:28:21;;;;;;;32.58;8.55;;;;;;;31.62;33.84;98403.78;5076158;28;20044;-94
2021/06/20 11:30:49;;;;;;;29.83;8.57;;;;;;;31.62;31.99;98407.44;5075545;28;20044;-96
2021/06/20 11:33:22;;;;;;;36.38;8.30;;;;;;;31.72;33.20;98394.25;5074971;28;20080;-95
2021/06/20 11:35:50;;;;;;;26.85;8.25;;;;;;;32.27;31.76;98413.31;5075054;28;20505;-93
2021/06/20 11:38:27;;;;;;;24.45;8.00;;;;;;;32.34;32.60;98426.16;5075103;28;20092;-94
2021/06/20 11:40:53;;;;;;;28.30;9.20;;;;;;;32.24;31.95;98417.31;5072293;28;20071;-93
2021/06/20 11:43:20;;;;;;;26.00;8.18;;;;;;;32.56;32.56;98418.03;5073061;28;20482;-93
2021/06/20 11:45:52;;;;;;;31.00;8.48;;;;;;;32.44;30.86;98417.59;5072902;28;20073;-94
2021/06/20 11:48:18;;;;;;;28.77;7.85;;;;;;;32.39;31.25;98402.72;5073804;28;20049;-95
2021/06/20 11:50:47;;;;;;;25.05;8.55;;;;;;;32.38;31.32;98407.38;5058821;28;20053;-94
2021/06/20 11:53:16;;;;;;;26.10;8.48;;;;;;;32.89;31.55;98418.44;5060095;28;20043;-94
2021/06/20 11:55:44;;;;;;;34.33;7.85;;;;;;;32.94;30.52;98402.19;5060878;28;20095;-93
2021/06/20 11:58:13;;;;;;;33.63;8.13;;;;;;;33.19;30.76;98412.03;5057840;28;20434;-92
2021/06/20 12:00:42;;;;;;;25.27;8.05;;;;;;;33.40;29.69;98400.16;5057101;28;20041;-94
2021/06/20 12:03:09;;;;;;;33.10;8.57;;;;;;;33.60;28.84;98411.44;5056698;28;20106;-95
2021/06/20 12:05:44;;;;;;;36.55;8.48;;;;;;;33.17;30.49;98403.97;5057603;28;20045;-94
2021/06/20 12:08:11;;;;;;;32.47;8.63;;;;;;;33.37;30.91;98408.81;5056937;28;20041;-94
2021/06/20 12:10:43;;;;;;;26.20;8.00;;;;;;;33.56;31.11;98416.44;5057911;28;20048;-93
2021/06/20 12:13:15;;;;;;;34.25;8.95;;;;;;;33.68;30.10;98423.16;5057756;28;20068;-93
2021/06/20 12:15:43;;;;;;;29.60;8.35;;;;;;;33.56;31.07;98403.50;5057339;28;20114;-94
2021/06/20 12:18:24;;;;;;;25.80;8.15;;;;;;;33.38;31.52;98407.75;5059047;28;20041;-95
2021/06/20 12:20:53;;;;;;;29.35;8.50;;;;;;;33.88;31.41;98415.06;5058391;28;20045;-92
2021/06/20 12:23:25;;;;;;;24.38;8.38;;;;;;;34.02;31.28;98407.72;5057694;28;20049;-92
2021/06/20 12:25:52;;;;;;;21.23;8.55;;;;;;;34.08;31.97;98406.94;5057558;28;20083;-94
2021/06/20 12:28:19;;;;;;;24.00;8.30;;;;;;;33.98;31.58;98400.91;5057952;28;20033;-96
2021/06/20 12:30:48;;;;;;;28.30;8.70;;;;;;;33.76;32.39;98391.81;5057727;28;20041;-91
2021/06/20 12:33:18;;;;;;;19.63;8.05;;;;;;;33.59;32.97;98385.72;5057841;28;20368;-94
2021/06/20 12:38:52;;;;;;;27.08;9.00;;;;;;;34.08;31.91;98403.31;5133197;27;20119;-92
2021/06/20 12:41:19;;;;;;;28.13;8.98;;;;;;;34.43;31.60;98406.13;5113957;28;20051;-93
2021/06/20 12:43:57;;;;;;;25.15;8.70;;;;;;;34.27;32.85;98401.78;5113805;28;20044;-93
2021/06/20 12:46:28;;;;;;;24.65;7.80;;;;;;;33.74;32.30;98383.75;5112471;28;20047;-92
2021/06/20 12:48:56;;;;;;;26.02;8.35;;;;;;;33.76;32.92;98389.91;5115722;28;20036;-92